createdAt,value
2022-09-23T00:01:09.123Z,16.00
2022-09-23T00:03:38.298Z,17.75
2022-09-23T00:06:13.454Z,18.05
2022-09-23T00:08:41.096Z,14.27
2022-09-23T00:11:23.525Z,12.77
2022-09-23T00:13:54.531Z,16.55
2022-09-23T00:16:26.206Z,14.80
2022-09-23T00:18:53.260Z,15.32
2022-09-23T00:21:22.141Z,15.10
2022-09-23T00:23:49.516Z,16.58
2022-09-23T00:26:19.225Z,17.25
2022-09-23T00:28:47.075Z,14.93
2022-09-23T00:31:16.729Z,14.77
2022-09-23T00:33:44.105Z,14.60
2022-09-23T00:36:15.798Z,13.68
2022-09-23T00:38:44.774Z,14.20
2022-09-23T00:41:13.241Z,17.05
2022-09-23T00:43:52.305Z,14.70
2022-09-23T00:46:28.228Z,15.40
2022-09-23T00:49:20.507Z,26.13
2022-09-23T00:51:54.526Z,13.07
2022-09-23T00:54:24.636Z,14.15
2022-09-23T00:56:52.064Z,19.35
2022-09-23T00:59:19.710Z,16.83
2022-09-23T01:01:49.666Z,19.52
2022-09-23T01:04:16.671Z,17.77
2022-09-23T01:06:43.470Z,21.30
2022-09-23T01:09:10.430Z,24.27
2022-09-23T01:11:57.226Z,16.33
2022-09-23T01:17:20.786Z,17.95
2022-09-23T01:20:05.890Z,19.13
2022-09-23T01:22:57.038Z,16.92
2022-09-23T01:25:54.847Z,13.45
2022-09-23T01:28:25.026Z,14.25
2022-09-23T01:31:16.289Z,12.70
2022-09-23T01:34:06.257Z,13.68
2022-09-23T01:36:42.165Z,17.35
2022-09-23T01:39:26.185Z,11.82
2022-09-23T01:42:24.962Z,13.98
2022-09-23T01:45:01.080Z,13.38
2022-09-23T01:47:38.174Z,12.25
2022-09-23T01:50:41.195Z,13.15
2022-09-23T01:53:21.207Z,11.93
2022-09-23T01:55:59.007Z,12.65
2022-09-23T01:58:48.924Z,12.60
2022-09-23T02:01:26.887Z,13.55
2022-09-23T02:04:04.343Z,14.30
2022-09-23T02:06:46.588Z,11.00
2022-09-23T02:09:16.990Z,12.15
2022-09-23T02:11:48.245Z,15.32
2022-09-23T02:14:50.541Z,12.27
2022-09-23T02:17:45.587Z,11.20
2022-09-23T02:20:15.923Z,14.02
2022-09-23T02:23:01.684Z,14.43
2022-09-23T02:25:54.474Z,10.65
2022-09-23T02:28:34.345Z,14.30
2022-09-23T02:31:34.777Z,15.57
2022-09-23T02:34:39.400Z,14.43
2022-09-23T02:37:31.882Z,24.10
2022-09-23T02:40:23.687Z,24.42
2022-09-23T02:43:02.812Z,20.45
2022-09-23T02:45:30.390Z,24.42
2022-09-23T02:48:08.852Z,24.13
2022-09-23T02:50:36.930Z,24.23
2022-09-23T02:53:04.821Z,20.52
2022-09-23T02:55:32.498Z,19.27
2022-09-23T02:58:05.603Z,22.08
2022-09-23T03:00:59.905Z,23.85
2022-09-23T03:03:42.107Z,20.63
2022-09-23T03:06:30.621Z,22.80
2022-09-23T03:09:23.474Z,23.02
2022-09-23T03:11:59.303Z,29.60
2022-09-23T03:14:36.941Z,22.13
2022-09-23T03:17:10.755Z,24.08
2022-09-23T03:19:58.555Z,19.00
2022-09-23T03:22:32.180Z,18.83
2022-09-23T03:25:07.194Z,16.52
2022-09-23T03:27:36.713Z,17.65
2022-09-23T03:30:06.990Z,19.35
2022-09-23T03:32:36.622Z,20.20
2022-09-23T03:35:05.519Z,20.05
2022-09-23T03:37:35.839Z,22.55
2022-09-23T03:40:08.496Z,26.88
2022-09-23T03:42:37.513Z,26.65
2022-09-23T03:45:09.618Z,21.15
2022-09-23T03:47:39.615Z,24.00
2022-09-23T03:50:07.030Z,25.75
2022-09-23T03:52:34.258Z,22.67
2022-09-23T03:55:01.543Z,16.70
2022-09-23T03:57:28.505Z,15.27
2022-09-23T03:59:55.460Z,15.70
2022-09-23T04:02:22.456Z,17.13
2022-09-23T04:04:49.452Z,15.50
2022-09-23T04:07:17.582Z,13.77
2022-09-23T04:09:44.849Z,15.35
2022-09-23T04:12:16.509Z,22.75
2022-09-23T04:14:44.507Z,17.05
2022-09-23T04:17:12.734Z,14.23
2022-09-23T04:19:39.840Z,17.08
2022-09-23T04:22:07.721Z,12.45
2022-09-23T04:24:34.928Z,10.27
2022-09-23T04:27:02.246Z,14.45
2022-09-23T04:29:29.337Z,13.30
2022-09-23T04:31:58.098Z,18.50
2022-09-23T04:34:25.128Z,15.30
2022-09-23T04:36:52.236Z,11.45
2022-09-23T04:39:22.599Z,10.82
2022-09-23T04:41:49.828Z,12.80
2022-09-23T04:44:21.505Z,13.13
2022-09-23T04:46:49.514Z,13.52
2022-09-23T04:49:30.454Z,13.05
2022-09-23T04:51:58.719Z,15.40
2022-09-23T04:54:26.454Z,16.65
2022-09-23T04:57:03.330Z,18.35
2022-09-23T04:59:33.829Z,16.63
2022-09-23T05:02:22.519Z,15.05
2022-09-23T05:13:49.066Z,21.30
2022-09-23T05:16:18.197Z,20.02
2022-09-23T05:19:25.535Z,24.70
2022-09-23T05:22:02.198Z,23.35
2022-09-23T05:38:53.240Z,10.98
2022-09-23T05:46:12.995Z,15.93
2022-09-23T05:49:01.171Z,10.00
2022-09-23T07:40:40.015Z,3.58
2022-09-23T07:43:11.271Z,4.15
2022-09-23T07:45:43.288Z,4.15
2022-09-23T07:50:01.288Z,5.85
2022-09-23T07:56:38.147Z,5.93
2022-09-23T07:59:12.666Z,6.00
2022-09-23T08:01:45.834Z,3.55
2022-09-23T08:04:27.969Z,3.10
2022-09-23T08:07:03.393Z,4.25
2022-09-23T08:09:48.431Z,3.72
2022-09-23T08:12:27.823Z,3.50
2022-09-23T08:18:45.653Z,4.20
2022-09-23T08:23:42.219Z,4.07
2022-09-23T08:31:16.374Z,4.18
2022-09-23T08:34:00.484Z,2.50
2022-09-23T08:36:47.099Z,3.22
2022-09-23T08:47:21.941Z,4.63
2022-09-23T08:50:06.505Z,2.00
2022-09-23T08:52:57.835Z,1.77
2022-09-23T08:56:11.760Z,2.13
2022-09-23T09:00:18.862Z,1.73
2022-09-23T09:09:47.312Z,4.05
2022-09-23T09:12:58.221Z,2.85
2022-09-23T09:16:58.928Z,3.72
2022-09-23T09:47:48.777Z,2.40
2022-09-23T09:50:22.355Z,4.83
2022-09-23T09:53:11.402Z,3.42
2022-09-23T09:55:43.776Z,4.35
2022-09-23T09:58:18.189Z,6.68
2022-09-23T10:00:50.991Z,4.45
2022-09-23T10:03:42.436Z,6.75
2022-09-23T10:06:25.515Z,4.68
2022-09-23T10:12:13.639Z,4.65
2022-09-23T10:15:08.607Z,4.32
2022-09-23T10:17:39.248Z,6.18
2022-09-23T10:20:30.159Z,8.82
2022-09-23T10:22:57.338Z,7.05
2022-09-23T10:25:34.397Z,5.38
2022-09-23T10:28:43.956Z,6.45
2022-09-23T10:32:02.898Z,6.07
2022-09-23T10:42:17.466Z,5.80
2022-09-23T10:45:41.121Z,3.55
2022-09-23T10:48:24.356Z,3.70
2022-09-23T10:50:55.745Z,3.45
2022-09-23T10:53:32.207Z,6.45
2022-09-23T10:56:14.971Z,4.63
2022-09-23T10:59:11.157Z,4.55
2022-09-23T11:01:49.042Z,4.70
2022-09-23T11:04:34.632Z,6.72
2022-09-23T11:07:23.240Z,4.55
2022-09-23T11:10:35.209Z,5.45
2022-09-23T11:13:24.761Z,8.52
2022-09-23T11:16:11.179Z,6.20
2022-09-23T11:18:39.069Z,5.85
2022-09-23T11:21:36.508Z,4.80
2022-09-23T11:24:25.023Z,4.97
2022-09-23T11:27:16.926Z,4.07
2022-09-23T11:29:56.571Z,5.32
2022-09-23T11:32:53.777Z,4.72
2022-09-23T11:35:27.481Z,4.97
2022-09-23T11:38:15.641Z,4.30
2022-09-23T11:40:46.670Z,2.92
2022-09-23T11:43:26.674Z,5.45
2022-09-23T11:46:42.601Z,5.13
2022-09-23T11:49:56.967Z,3.60
2022-09-23T11:52:40.384Z,4.35
2022-09-23T11:55:23.202Z,2.70
2022-09-23T11:57:58.202Z,3.38
2022-09-23T12:00:30.249Z,3.28
2022-09-23T12:03:20.290Z,3.47
2022-09-23T12:05:58.639Z,3.38
2022-09-23T12:08:39.871Z,7.35
2022-09-23T12:11:38.205Z,4.78
2022-09-23T12:14:22.187Z,2.80
2022-09-23T12:17:14.231Z,3.50
2022-09-23T12:20:00.432Z,3.40
2022-09-23T12:22:34.403Z,3.00
2022-09-23T12:25:12.550Z,3.50
2022-09-23T12:27:48.499Z,4.60
2022-09-23T12:30:23.398Z,6.10
2022-09-23T12:32:51.007Z,3.05
2022-09-23T12:35:32.251Z,5.60
2022-09-23T12:38:03.544Z,8.15
2022-09-23T12:40:44.938Z,3.50
2022-09-23T12:43:20.599Z,6.28
2022-09-23T12:45:48.279Z,4.15
2022-09-23T12:48:18.410Z,3.40
2022-09-23T12:51:16.355Z,2.47
2022-09-23T12:53:57.613Z,2.40
2022-09-23T12:56:37.036Z,2.30
2022-09-23T12:59:14.294Z,5.05
2022-09-23T13:01:42.389Z,3.33
2022-09-23T13:04:50.337Z,4.45
2022-09-23T13:07:25.240Z,2.92
2022-09-23T13:09:58.292Z,2.65
2022-09-23T13:12:31.669Z,2.13
2022-09-23T13:15:08.253Z,3.38
2022-09-23T13:17:40.491Z,2.90
2022-09-23T13:20:19.803Z,4.30
2022-09-23T13:22:49.474Z,3.85
2022-09-23T13:25:35.682Z,4.72
2022-09-23T13:28:04.165Z,3.55
2022-09-23T13:30:31.570Z,2.50
2022-09-23T13:33:39.644Z,2.92
2022-09-23T13:36:18.829Z,3.70
2022-09-23T13:38:47.158Z,2.63
2022-09-23T13:41:23.891Z,4.00
2022-09-23T13:43:59.164Z,3.08
2022-09-23T13:46:30.228Z,3.53
2022-09-23T13:48:57.578Z,4.13
2022-09-23T13:51:30.344Z,2.67
2022-09-23T13:53:59.904Z,2.50
2022-09-23T13:56:32.327Z,2.35
2022-09-23T13:59:26.830Z,2.83
2022-09-23T14:02:20.625Z,8.10
2022-09-23T14:04:48.036Z,2.13
2022-09-23T14:07:16.996Z,1.85
2022-09-23T14:09:48.695Z,2.60
2022-09-23T14:12:22.371Z,3.50
2022-09-23T14:14:52.498Z,2.30
2022-09-23T14:17:23.825Z,2.75
2022-09-23T14:19:51.454Z,2.45
2022-09-23T14:22:29.209Z,2.28
2022-09-23T14:24:57.624Z,2.72
2022-09-23T14:27:24.527Z,2.00
2022-09-23T14:29:52.007Z,4.05
2022-09-23T14:32:27.722Z,5.13
2022-09-23T14:35:05.243Z,2.85
2022-09-23T14:37:57.588Z,2.72
2022-09-23T14:40:37.730Z,3.35
2022-09-23T14:43:24.627Z,5.47
2022-09-23T14:45:58.159Z,2.28
2022-09-23T14:48:30.768Z,3.42
2022-09-23T14:51:04.306Z,2.30
2022-09-23T14:53:38.769Z,2.63
2022-09-23T14:56:09.276Z,2.10
2022-09-23T14:59:02.807Z,6.22
2022-09-23T15:01:37.343Z,2.97
2022-09-23T15:04:22.655Z,4.72
2022-09-23T15:07:21.198Z,2.33
2022-09-23T15:09:48.341Z,2.22
2022-09-23T15:12:20.746Z,3.20
2022-09-23T15:14:56.806Z,2.95
2022-09-23T15:17:24.191Z,3.97
2022-09-23T15:19:59.106Z,5.47
2022-09-23T15:22:29.384Z,4.95
2022-09-23T15:25:22.170Z,5.68
2022-09-23T15:28:17.805Z,5.55
2022-09-23T15:30:45.647Z,6.95
2022-09-23T15:33:15.546Z,8.52
2022-09-23T15:35:48.645Z,10.65
2022-09-23T15:38:18.203Z,7.53
2022-09-23T15:40:45.428Z,7.55
2022-09-23T15:43:27.734Z,8.23
2022-09-23T15:46:02.517Z,6.15
2022-09-23T15:48:36.239Z,7.80
2022-09-23T15:51:09.589Z,8.05
2022-09-23T15:53:38.408Z,6.63
2022-09-23T15:56:06.516Z,7.82
2022-09-23T15:58:34.002Z,7.45
2022-09-23T16:01:01.426Z,5.13
2022-09-23T16:03:29.089Z,10.13
2022-09-23T16:06:02.492Z,6.32
2022-09-23T16:08:33.639Z,8.30
2022-09-23T16:11:00.939Z,5.82
2022-09-23T16:13:28.986Z,10.88
2022-09-23T16:15:57.907Z,11.68
2022-09-23T16:18:27.941Z,11.02
2022-09-23T16:20:55.446Z,11.43
2022-09-23T16:23:35.923Z,9.90
2022-09-23T16:26:23.413Z,7.93
2022-09-23T16:28:53.481Z,14.23
2022-09-23T16:31:22.483Z,11.48
2022-09-23T16:33:57.334Z,9.52
2022-09-23T16:36:39.482Z,7.97
2022-09-23T16:39:12.888Z,7.68
2022-09-23T16:41:43.808Z,7.78
2022-09-23T16:44:13.574Z,6.35
2022-09-23T16:46:43.063Z,11.02
2022-09-23T16:49:13.399Z,7.93
2022-09-23T16:51:40.553Z,6.60
2022-09-23T16:54:10.883Z,5.88
2022-09-23T16:56:53.550Z,6.22
2022-09-23T16:59:21.417Z,5.93
2022-09-23T17:02:08.719Z,9.32
2022-09-23T17:04:36.649Z,8.07
2022-09-23T17:07:03.932Z,8.48
2022-09-23T17:09:33.192Z,9.82
2022-09-23T17:12:21.257Z,9.32
2022-09-23T17:14:52.794Z,10.98
2022-09-23T17:17:28.087Z,11.40
2022-09-23T17:19:57.128Z,13.70
2022-09-23T17:22:26.096Z,10.30
2022-09-23T17:25:06.976Z,13.85
2022-09-23T17:27:34.164Z,10.85
2022-09-23T17:30:02.062Z,10.70
2022-09-23T17:32:32.363Z,12.30
2022-09-23T17:35:04.908Z,13.45
2022-09-23T17:37:36.060Z,8.65
2022-09-23T17:43:10.646Z,14.93
2022-09-23T17:45:39.838Z,9.18
2022-09-23T17:48:07.432Z,8.15
2022-09-23T17:50:35.722Z,8.65
2022-09-23T17:53:03.234Z,9.63
2022-09-23T17:55:31.075Z,9.27
2022-09-23T17:58:03.200Z,10.40
2022-09-23T18:00:30.666Z,10.50
2022-09-23T18:02:59.334Z,10.98
2022-09-23T18:05:26.719Z,10.05
2022-09-23T18:07:55.128Z,7.65
2022-09-23T18:10:28.110Z,12.25
2022-09-23T18:13:02.289Z,10.25
2022-09-23T18:15:30.299Z,11.45
2022-09-23T18:17:57.665Z,8.65
2022-09-23T18:20:24.952Z,8.90
2022-09-23T18:22:54.299Z,9.90
2022-09-23T18:25:38.254Z,8.85
2022-09-23T18:28:09.097Z,12.50
2022-09-23T18:30:36.512Z,11.15
2022-09-23T18:33:04.257Z,9.77
2022-09-23T18:35:39.009Z,13.10
2022-09-23T18:38:07.135Z,11.57
2022-09-23T18:40:35.490Z,7.97
2022-09-23T18:43:04.120Z,8.98
2022-09-23T18:45:39.474Z,10.18
2022-09-23T18:48:27.850Z,13.65
2022-09-23T18:51:09.604Z,8.02
2022-09-23T18:53:37.805Z,9.60
2022-09-23T18:56:09.509Z,9.80
2022-09-23T18:58:36.859Z,10.73
2022-09-23T19:01:09.430Z,9.63
2022-09-23T19:03:37.889Z,8.30
2022-09-23T19:06:25.606Z,8.93
2022-09-23T19:08:55.275Z,8.73
2022-09-23T19:11:24.297Z,10.88
2022-09-23T19:13:58.342Z,8.35
2022-09-23T19:16:31.069Z,9.93
2022-09-23T19:19:02.130Z,7.93
2022-09-23T19:21:33.900Z,9.55
2022-09-23T19:24:05.348Z,8.20
2022-09-23T19:26:37.000Z,8.13
2022-09-23T19:29:06.120Z,8.38
2022-09-23T19:31:38.644Z,12.05
2022-09-23T19:34:15.063Z,10.85
2022-09-23T19:36:47.443Z,8.57
2022-09-23T19:39:20.369Z,9.02
2022-09-23T19:41:49.142Z,7.82
2022-09-23T19:44:17.430Z,9.00
2022-09-23T19:46:56.910Z,12.73
2022-09-23T19:49:28.608Z,13.95
2022-09-23T19:51:58.319Z,13.75
2022-09-23T19:54:28.448Z,14.48
2022-09-23T19:57:02.551Z,12.57
2022-09-23T19:59:33.685Z,10.73
2022-09-23T20:02:00.972Z,13.23
2022-09-23T20:04:28.747Z,15.85
2022-09-23T20:06:55.596Z,12.88
2022-09-23T20:09:23.852Z,10.60
2022-09-23T20:11:52.971Z,17.52
2022-09-23T20:14:24.836Z,15.65
2022-09-23T20:16:53.464Z,23.13
2022-09-23T20:19:22.562Z,26.88
2022-09-23T20:22:10.102Z,25.20
2022-09-23T20:24:37.697Z,28.05
2022-09-23T20:27:11.567Z,25.95
2022-09-23T20:29:43.036Z,28.05
2022-09-23T20:32:12.581Z,29.50
2022-09-23T20:34:40.315Z,26.77
2022-09-23T20:37:07.648Z,32.22
2022-09-23T20:39:35.475Z,28.83
2022-09-23T20:42:03.078Z,31.58
2022-09-23T20:44:33.810Z,34.85
2022-09-23T20:47:01.599Z,34.78
2022-09-23T20:49:33.988Z,33.78
2022-09-23T20:52:04.899Z,29.23
2022-09-23T20:54:32.707Z,30.00
2022-09-23T20:57:03.201Z,26.27
2022-09-23T20:59:30.986Z,25.30
2022-09-23T21:01:59.031Z,20.83
2022-09-23T21:04:27.394Z,21.48
2022-09-23T21:06:57.709Z,19.42
2022-09-23T21:09:31.153Z,21.10
2022-09-23T21:11:59.173Z,22.27
2022-09-23T21:14:26.193Z,22.42
2022-09-23T21:16:54.899Z,23.42
2022-09-23T21:19:21.971Z,20.33
2022-09-23T21:21:49.176Z,20.20
2022-09-23T21:24:53.229Z,22.17
2022-09-23T21:27:03.986Z,29.30
2022-09-23T21:29:30.974Z,21.42
2022-09-23T21:31:57.945Z,21.65
2022-09-23T21:34:28.326Z,25.75
2022-09-23T21:36:55.626Z,21.98
2022-09-23T21:39:22.569Z,23.67
2022-09-23T21:41:51.384Z,18.70
2022-09-23T21:44:18.621Z,19.73
2022-09-23T21:46:45.665Z,20.27
2022-09-23T21:49:13.333Z,20.52
2022-09-23T21:51:41.535Z,21.75
2022-09-23T21:54:14.540Z,23.35
2022-09-23T21:56:42.686Z,22.50
2022-09-23T21:59:10.809Z,17.48
2022-09-23T22:01:41.568Z,25.52
2022-09-23T22:04:15.304Z,21.60
2022-09-23T22:06:42.318Z,25.52
2022-09-23T22:09:18.152Z,27.33
2022-09-23T22:12:04.067Z,23.58
2022-09-23T22:14:31.507Z,27.17
2022-09-23T22:17:00.774Z,24.08
2022-09-23T22:19:32.931Z,24.25
2022-09-23T22:22:00.383Z,30.27
2022-09-23T22:24:27.813Z,37.42
2022-09-23T22:26:54.737Z,48.97
2022-09-23T22:29:41.520Z,49.20
2022-09-23T22:32:30.195Z,42.15
2022-09-23T22:35:00.565Z,35.65
2022-09-23T22:37:30.538Z,32.60
2022-09-23T22:39:57.527Z,32.97
2022-09-23T22:42:25.129Z,29.00
2022-09-23T22:44:52.995Z,28.92
2022-09-23T22:47:20.461Z,28.90
2022-09-23T22:49:48.399Z,31.83
2022-09-23T22:52:21.254Z,25.60
2022-09-23T22:54:48.240Z,21.48
2022-09-23T22:57:15.461Z,20.52
2022-09-23T22:59:43.904Z,23.20
2022-09-23T23:02:10.844Z,18.65
2022-09-23T23:04:37.780Z,20.70
2022-09-23T23:07:06.168Z,16.88
2022-09-23T23:09:33.304Z,16.05
2022-09-23T23:12:00.231Z,18.98
2022-09-23T23:14:28.005Z,21.38
2022-09-23T23:16:55.159Z,17.50
2022-09-23T23:19:22.071Z,21.38
2022-09-23T23:21:50.679Z,18.88
2022-09-23T23:24:22.872Z,21.98
2022-09-23T23:26:50.926Z,22.27
2022-09-23T23:29:19.871Z,20.58
2022-09-23T23:31:47.381Z,20.45
2022-09-23T23:34:20.700Z,23.17
2022-09-23T23:36:55.317Z,24.55
2022-09-23T23:39:23.917Z,17.17
2022-09-23T23:41:55.740Z,19.08
2022-09-23T23:44:24.853Z,25.48
2022-09-23T23:46:52.567Z,16.10
2022-09-23T23:49:19.804Z,18.77
2022-09-23T23:51:48.094Z,18.98
2022-09-23T23:54:15.666Z,16.48
2022-09-23T23:56:43.081Z,16.02
2022-09-23T23:59:10.070Z,17.20
